LiveATC.Net - Listen to live air traffic control over the Internet!


ICAO: KPDK  IATA: PDK   Airport: Dekalb-Peachtree Airport
City: Atlanta   State/Province: Georgia
Country: United States   Continent: North America
KPDK METAR Weather: KPDK 210430Z AUTO VRB06KT 3SM VCTS -RA BR OVC004 05/04 A3010 RMK AO2 LTG DSNT S P0010 T00500044
KPDK Flight Activity (FlightAware)
KPDK Airport Info   (iFlightPlanner)
KPDK VFR Sectional Chart   (iFlightPlanner) 
KPDK IFR Low Chart   (iFlightPlanner) 

KPDK Tower
Feed Status: UP   Listeners: 0
Listen in your browser - HTML5 player (in browser, HTML5)
Click here to listen with your own player (launches your MP3 player)
KPDK Tower Audio Archives
FacilityFrequency
Peachtree Tower120.900

NOTICE

Unauthorized use prohibited. See LiveATC.net Terms of Service


Find LiveATC Audio Streams


Airport/ARTCC Code

Frequency Search
(e.g., 124.400, 128.75)
Site-wide search
 


Browse LiveATC Feeds
Top 50 LiveATC Feeds
LiveATC Feed Map
Bad Weather Areas

LiveATC FAQ
Offer LiveATC feed
Contact LiveATC.net
Press Inquiries

LiveATC on iPhone
LiveATC on Android

Windows Phone
Windows 8/10

LiveATC Mobile
(Mobile browser)

ATC Audio Archives
Interesting Recordings

LiveATC Forums


Home Page
About LiveATC.net
Make a Donation
Terms of Use
Privacy Policy

Canadian Air Freqs

AIRMETs/SIGMETs

FAA Airport Status
Nat'l Airspace Status
Arrival Demand Charts


Server Software By:
Icecast.org
Liquidsoap